sensor_id;sensor_type;location;lat;lon;timestamp;temperature;humidity
5017;DHT22;2527;50.892;16.706;2023-06-04T00:01:22;12.70;99.90
5017;DHT22;2527;50.892;16.706;2023-06-04T00:03:48;12.70;99.90
5017;DHT22;2527;50.892;16.706;2023-06-04T00:06:14;12.70;99.90
5017;DHT22;2527;50.892;16.706;2023-06-04T00:08:39;12.60;99.90
5017;DHT22;2527;50.892;16.706;2023-06-04T00:11:05;12.60;99.90
5017;DHT22;2527;50.892;16.706;2023-06-04T00:13:30;12.60;99.90
5017;DHT22;2527;50.892;16.706;2023-06-04T00:15:56;12.50;99.90
5017;DHT22;2527;50.892;16.706;2023-06-04T00:18:22;12.50;99.90
5017;DHT22;2527;50.892;16.706;2023-06-04T00:20:48;12.50;99.90
5017;DHT22;2527;50.892;16.706;2023-06-04T00:23:13;12.40;99.90
5017;DHT22;2527;50.892;16.706;2023-06-04T00:25:39;12.40;99.90
5017;DHT22;2527;50.892;16.706;2023-06-04T00:28:05;12.40;99.90
5017;DHT22;2527;50.892;16.706;2023-06-04T00:30:31;12.30;99.90
5017;DHT22;2527;50.892;16.706;2023-06-04T00:32:56;12.30;99.90
5017;DHT22;2527;50.892;16.706;2023-06-04T00:35:22;12.30;99.90
5017;DHT22;2527;50.892;16.706;2023-06-04T00:37:47;12.30;99.90
5017;DHT22;2527;50.892;16.706;2023-06-04T00:40:13;12.30;99.90
5017;DHT22;2527;50.892;16.706;2023-06-04T00:42:40;12.20;99.90
5017;DHT22;2527;50.892;16.706;2023-06-04T00:45:06;12.20;99.90
5017;DHT22;2527;50.892;16.706;2023-06-04T00:47:33;12.20;99.90
5017;DHT22;2527;50.892;16.706;2023-06-04T00:49:59;12.10;99.90
5017;DHT22;2527;50.892;16.706;2023-06-04T00:52:25;12.10;99.90
5017;DHT22;2527;50.892;16.706;2023-06-04T00:54:51;12.10;99.90
5017;DHT22;2527;50.892;16.706;2023-06-04T00:57:17;12.10;99.90
5017;DHT22;2527;50.892;16.706;2023-06-04T00:59:42;12.10;99.90
5017;DHT22;2527;50.892;16.706;2023-06-04T01:02:18;12.00;99.90
5017;DHT22;2527;50.892;16.706;2023-06-04T01:04:57;12.00;99.90
5017;DHT22;2527;50.892;16.706;2023-06-04T01:07:24;12.00;99.90
5017;DHT22;2527;50.892;16.706;2023-06-04T01:09:51;11.90;99.90
5017;DHT22;2527;50.892;16.706;2023-06-04T01:12:17;11.90;99.90
5017;DHT22;2527;50.892;16.706;2023-06-04T01:14:43;11.90;99.90
5017;DHT22;2527;50.892;16.706;2023-06-04T01:17:11;11.90;99.90
5017;DHT22;2527;50.892;16.706;2023-06-04T01:22:04;11.80;99.90
5017;DHT22;2527;50.892;16.706;2023-06-04T01:24:34;11.70;99.90
5017;DHT22;2527;50.892;16.706;2023-06-04T01:27:02;11.70;99.90
5017;DHT22;2527;50.892;16.706;2023-06-04T01:29:29;11.70;99.90
5017;DHT22;2527;50.892;16.706;2023-06-04T01:31:55;11.70;99.90
5017;DHT22;2527;50.892;16.706;2023-06-04T01:34:22;11.70;99.90
5017;DHT22;2527;50.892;16.706;2023-06-04T01:36:48;11.70;99.90
5017;DHT22;2527;50.892;16.706;2023-06-04T01:39:13;11.60;99.90
5017;DHT22;2527;50.892;16.706;2023-06-04T01:41:39;11.60;99.90
5017;DHT22;2527;50.892;16.706;2023-06-04T01:44:05;11.60;99.90
5017;DHT22;2527;50.892;16.706;2023-06-04T01:46:32;11.50;99.90
5017;DHT22;2527;50.892;16.706;2023-06-04T01:48:58;11.50;99.90
5017;DHT22;2527;50.892;16.706;2023-06-04T01:51:23;11.50;99.90
5017;DHT22;2527;50.892;16.706;2023-06-04T01:53:49;11.40;99.90
5017;DHT22;2527;50.892;16.706;2023-06-04T01:56:15;11.40;99.90
5017;DHT22;2527;50.892;16.706;2023-06-04T01:58:41;11.40;99.90
5017;DHT22;2527;50.892;16.706;2023-06-04T02:01:07;11.40;99.90
5017;DHT22;2527;50.892;16.706;2023-06-04T02:03:32;11.40;99.90
5017;DHT22;2527;50.892;16.706;2023-06-04T02:06:05;11.40;99.90
5017;DHT22;2527;50.892;16.706;2023-06-04T02:08:34;11.40;99.90
5017;DHT22;2527;50.892;16.706;2023-06-04T02:11:00;11.30;99.90
5017;DHT22;2527;50.892;16.706;2023-06-04T02:13:26;11.30;99.90
5017;DHT22;2527;50.892;16.706;2023-06-04T02:15:52;11.20;99.90
5017;DHT22;2527;50.892;16.706;2023-06-04T02:18:18;11.20;99.90
5017;DHT22;2527;50.892;16.706;2023-06-04T02:20:47;11.20;99.90
5017;DHT22;2527;50.892;16.706;2023-06-04T02:23:14;11.20;99.90
5017;DHT22;2527;50.892;16.706;2023-06-04T02:25:40;11.20;99.90
5017;DHT22;2527;50.892;16.706;2023-06-04T02:28:06;11.20;99.90
5017;DHT22;2527;50.892;16.706;2023-06-04T02:30:32;11.20;99.90
5017;DHT22;2527;50.892;16.706;2023-06-04T02:32:57;11.10;99.90
5017;DHT22;2527;50.892;16.706;2023-06-04T02:35:26;11.10;99.90
5017;DHT22;2527;50.892;16.706;2023-06-04T02:37:52;11.10;99.90
5017;DHT22;2527;50.892;16.706;2023-06-04T02:40:18;11.10;99.90
5017;DHT22;2527;50.892;16.706;2023-06-04T02:42:44;11.10;99.90
5017;DHT22;2527;50.892;16.706;2023-06-04T02:45:10;11.10;99.90
5017;DHT22;2527;50.892;16.706;2023-06-04T02:47:35;11.10;99.90
5017;DHT22;2527;50.892;16.706;2023-06-04T02:50:06;11.00;99.90
5017;DHT22;2527;50.892;16.706;2023-06-04T02:52:32;11.00;99.90
5017;DHT22;2527;50.892;16.706;2023-06-04T02:54:58;11.00;99.90
5017;DHT22;2527;50.892;16.706;2023-06-04T02:57:23;10.90;99.90
5017;DHT22;2527;50.892;16.706;2023-06-04T02:59:49;11.00;99.90
5017;DHT22;2527;50.892;16.706;2023-06-04T03:02:14;10.90;99.90
5017;DHT22;2527;50.892;16.706;2023-06-04T03:04:41;10.90;99.90
5017;DHT22;2527;50.892;16.706;2023-06-04T03:07:08;10.90;99.90
5017;DHT22;2527;50.892;16.706;2023-06-04T03:09:37;10.90;99.90
5017;DHT22;2527;50.892;16.706;2023-06-04T03:12:03;10.90;99.90
5017;DHT22;2527;50.892;16.706;2023-06-04T03:14:29;10.90;99.90
5017;DHT22;2527;50.892;16.706;2023-06-04T03:16:59;10.90;99.90
5017;DHT22;2527;50.892;16.706;2023-06-04T03:19:26;10.90;99.90
5017;DHT22;2527;50.892;16.706;2023-06-04T03:21:53;10.90;99.90
5017;DHT22;2527;50.892;16.706;2023-06-04T03:24:19;10.90;99.90
5017;DHT22;2527;50.892;16.706;2023-06-04T03:26:44;10.90;99.90
5017;DHT22;2527;50.892;16.706;2023-06-04T03:29:11;10.90;99.90
5017;DHT22;2527;50.892;16.706;2023-06-04T03:31:37;11.00;99.90
5017;DHT22;2527;50.892;16.706;2023-06-04T03:34:03;11.00;99.90
5017;DHT22;2527;50.892;16.706;2023-06-04T03:36:29;11.00;99.90
5017;DHT22;2527;50.892;16.706;2023-06-04T03:38:57;11.10;99.90
5017;DHT22;2527;50.892;16.706;2023-06-04T03:41:23;11.10;99.90
5017;DHT22;2527;50.892;16.706;2023-06-04T03:43:49;11.10;99.90
5017;DHT22;2527;50.892;16.706;2023-06-04T03:46:14;11.20;99.90
5017;DHT22;2527;50.892;16.706;2023-06-04T03:48:41;11.20;99.90
5017;DHT22;2527;50.892;16.706;2023-06-04T03:51:07;11.30;99.90
5017;DHT22;2527;50.892;16.706;2023-06-04T03:53:32;11.30;99.90
5017;DHT22;2527;50.892;16.706;2023-06-04T03:55:58;11.40;99.90
5017;DHT22;2527;50.892;16.706;2023-06-04T03:58:23;11.50;99.90
5017;DHT22;2527;50.892;16.706;2023-06-04T04:00:49;11.60;99.90
5017;DHT22;2527;50.892;16.706;2023-06-04T04:03:15;11.80;99.90
5017;DHT22;2527;50.892;16.706;2023-06-04T04:05:40;12.00;99.90
5017;DHT22;2527;50.892;16.706;2023-06-04T04:08:06;12.30;99.90
5017;DHT22;2527;50.892;16.706;2023-06-04T04:10:34;12.50;99.90
5017;DHT22;2527;50.892;16.706;2023-06-04T04:13:00;12.80;99.90
5017;DHT22;2527;50.892;16.706;2023-06-04T04:15:25;13.10;99.90
5017;DHT22;2527;50.892;16.706;2023-06-04T04:17:52;13.30;99.90
5017;DHT22;2527;50.892;16.706;2023-06-04T04:20:18;13.50;99.90
5017;DHT22;2527;50.892;16.706;2023-06-04T04:22:44;13.70;99.90
5017;DHT22;2527;50.892;16.706;2023-06-04T04:25:10;14.10;99.90
5017;DHT22;2527;50.892;16.706;2023-06-04T04:27:35;14.80;99.90
5017;DHT22;2527;50.892;16.706;2023-06-04T04:30:04;15.30;99.90
5017;DHT22;2527;50.892;16.706;2023-06-04T04:32:30;15.90;99.90
5017;DHT22;2527;50.892;16.706;2023-06-04T04:34:57;16.60;99.90
5017;DHT22;2527;50.892;16.706;2023-06-04T04:37:22;17.30;99.90
5017;DHT22;2527;50.892;16.706;2023-06-04T04:39:48;17.90;99.90
5017;DHT22;2527;50.892;16.706;2023-06-04T04:42:17;18.50;99.90
5017;DHT22;2527;50.892;16.706;2023-06-04T04:44:43;19.40;99.90
5017;DHT22;2527;50.892;16.706;2023-06-04T04:47:13;20.60;99.90
5017;DHT22;2527;50.892;16.706;2023-06-04T04:49:39;22.30;99.90
5017;DHT22;2527;50.892;16.706;2023-06-04T04:52:04;23.90;99.90
5017;DHT22;2527;50.892;16.706;2023-06-04T04:54:30;25.30;99.90
5017;DHT22;2527;50.892;16.706;2023-06-04T04:56:55;26.50;99.90
5017;DHT22;2527;50.892;16.706;2023-06-04T04:59:21;27.60;99.90
5017;DHT22;2527;50.892;16.706;2023-06-04T05:01:47;28.60;99.90
5017;DHT22;2527;50.892;16.706;2023-06-04T05:04:13;29.50;99.90
5017;DHT22;2527;50.892;16.706;2023-06-04T05:06:39;30.40;99.90
5017;DHT22;2527;50.892;16.706;2023-06-04T05:09:05;31.20;99.90
5017;DHT22;2527;50.892;16.706;2023-06-04T05:11:33;31.90;99.90
5017;DHT22;2527;50.892;16.706;2023-06-04T05:13:59;32.60;99.90
5017;DHT22;2527;50.892;16.706;2023-06-04T05:16:25;33.20;99.90
5017;DHT22;2527;50.892;16.706;2023-06-04T05:18:53;33.70;99.90
5017;DHT22;2527;50.892;16.706;2023-06-04T05:21:22;34.20;99.90
5017;DHT22;2527;50.892;16.706;2023-06-04T05:23:47;34.60;99.90
5017;DHT22;2527;50.892;16.706;2023-06-04T05:26:13;35.10;99.90
5017;DHT22;2527;50.892;16.706;2023-06-04T05:28:39;35.40;99.90
5017;DHT22;2527;50.892;16.706;2023-06-04T05:31:08;35.70;99.90
5017;DHT22;2527;50.892;16.706;2023-06-04T05:33:34;36.00;99.90
5017;DHT22;2527;50.892;16.706;2023-06-04T05:36:00;36.30;99.90
5017;DHT22;2527;50.892;16.706;2023-06-04T05:38:26;36.50;99.90
5017;DHT22;2527;50.892;16.706;2023-06-04T05:40:53;36.80;99.90
5017;DHT22;2527;50.892;16.706;2023-06-04T05:43:20;36.90;99.90
5017;DHT22;2527;50.892;16.706;2023-06-04T05:45:45;37.10;99.90
5017;DHT22;2527;50.892;16.706;2023-06-04T05:48:11;37.30;99.90
5017;DHT22;2527;50.892;16.706;2023-06-04T05:50:39;37.30;99.90
5017;DHT22;2527;50.892;16.706;2023-06-04T05:53:04;37.30;99.90
5017;DHT22;2527;50.892;16.706;2023-06-04T05:55:30;37.40;99.90
5017;DHT22;2527;50.892;16.706;2023-06-04T05:57:56;37.50;99.90
5017;DHT22;2527;50.892;16.706;2023-06-04T06:00:22;37.40;99.90
5017;DHT22;2527;50.892;16.706;2023-06-04T06:02:50;37.40;99.90
5017;DHT22;2527;50.892;16.706;2023-06-04T06:05:18;37.00;99.90
5017;DHT22;2527;50.892;16.706;2023-06-04T06:07:44;35.90;99.90
5017;DHT22;2527;50.892;16.706;2023-06-04T06:10:09;34.40;99.90
5017;DHT22;2527;50.892;16.706;2023-06-04T06:12:35;32.80;99.90
5017;DHT22;2527;50.892;16.706;2023-06-04T06:15:01;31.20;99.90
5017;DHT22;2527;50.892;16.706;2023-06-04T06:17:27;29.90;99.90
5017;DHT22;2527;50.892;16.706;2023-06-04T06:19:54;28.70;99.90
5017;DHT22;2527;50.892;16.706;2023-06-04T06:22:19;27.70;99.90
5017;DHT22;2527;50.892;16.706;2023-06-04T06:24:45;26.90;99.90
5017;DHT22;2527;50.892;16.706;2023-06-04T06:27:11;26.20;99.90
5017;DHT22;2527;50.892;16.706;2023-06-04T06:29:38;25.60;99.90
5017;DHT22;2527;50.892;16.706;2023-06-04T06:32:05;25.30;99.90
5017;DHT22;2527;50.892;16.706;2023-06-04T06:34:30;24.90;99.90
5017;DHT22;2527;50.892;16.706;2023-06-04T06:36:56;24.60;99.90
5017;DHT22;2527;50.892;16.706;2023-06-04T06:39:22;24.30;99.90
5017;DHT22;2527;50.892;16.706;2023-06-04T06:41:48;24.10;99.90
5017;DHT22;2527;50.892;16.706;2023-06-04T06:44:14;23.90;99.90
5017;DHT22;2527;50.892;16.706;2023-06-04T06:46:39;23.70;99.90
5017;DHT22;2527;50.892;16.706;2023-06-04T06:49:05;23.50;99.90
5017;DHT22;2527;50.892;16.706;2023-06-04T06:51:31;23.50;99.90
5017;DHT22;2527;50.892;16.706;2023-06-04T06:53:56;23.40;99.90
5017;DHT22;2527;50.892;16.706;2023-06-04T06:56:22;23.30;99.90
5017;DHT22;2527;50.892;16.706;2023-06-04T06:58:48;23.30;99.90
5017;DHT22;2527;50.892;16.706;2023-06-04T07:01:14;23.30;99.90
5017;DHT22;2527;50.892;16.706;2023-06-04T07:03:41;23.30;99.90
5017;DHT22;2527;50.892;16.706;2023-06-04T07:06:06;23.20;99.90
5017;DHT22;2527;50.892;16.706;2023-06-04T07:08:32;23.20;99.90
5017;DHT22;2527;50.892;16.706;2023-06-04T07:11:01;23.20;99.90
5017;DHT22;2527;50.892;16.706;2023-06-04T07:13:27;23.20;99.90
5017;DHT22;2527;50.892;16.706;2023-06-04T07:15:53;23.20;99.90
5017;DHT22;2527;50.892;16.706;2023-06-04T07:18:19;23.30;99.90
5017;DHT22;2527;50.892;16.706;2023-06-04T07:20:45;23.30;99.90
5017;DHT22;2527;50.892;16.706;2023-06-04T07:23:11;23.30;99.90
5017;DHT22;2527;50.892;16.706;2023-06-04T07:25:36;23.30;99.90
5017;DHT22;2527;50.892;16.706;2023-06-04T07:28:02;23.30;99.90
5017;DHT22;2527;50.892;16.706;2023-06-04T07:30:32;23.30;99.90
5017;DHT22;2527;50.892;16.706;2023-06-04T07:32:57;23.30;99.90
5017;DHT22;2527;50.892;16.706;2023-06-04T07:35:23;23.40;99.90
5017;DHT22;2527;50.892;16.706;2023-06-04T07:37:49;23.40;99.90
5017;DHT22;2527;50.892;16.706;2023-06-04T07:40:15;23.40;99.90
5017;DHT22;2527;50.892;16.706;2023-06-04T07:42:41;23.40;99.90
5017;DHT22;2527;50.892;16.706;2023-06-04T07:45:07;23.40;99.90
5017;DHT22;2527;50.892;16.706;2023-06-04T07:47:38;24.50;99.90
5017;DHT22;2527;50.892;16.706;2023-06-04T07:50:04;23.50;99.90
5017;DHT22;2527;50.892;16.706;2023-06-04T07:52:30;23.50;99.90
5017;DHT22;2527;50.892;16.706;2023-06-04T07:54:56;23.50;99.90
5017;DHT22;2527;50.892;16.706;2023-06-04T07:57:22;23.50;99.90
5017;DHT22;2527;50.892;16.706;2023-06-04T07:59:48;23.50;99.90
5017;DHT22;2527;50.892;16.706;2023-06-04T08:02:14;23.60;99.90
5017;DHT22;2527;50.892;16.706;2023-06-04T08:04:40;23.60;99.90
5017;DHT22;2527;50.892;16.706;2023-06-04T08:07:05;23.60;99.90
5017;DHT22;2527;50.892;16.706;2023-06-04T08:09:31;23.60;99.90
5017;DHT22;2527;50.892;16.706;2023-06-04T08:11:57;23.60;99.90
5017;DHT22;2527;50.892;16.706;2023-06-04T08:14:23;23.60;99.90
5017;DHT22;2527;50.892;16.706;2023-06-04T08:16:53;23.50;99.90
5017;DHT22;2527;50.892;16.706;2023-06-04T08:19:19;23.50;99.90
5017;DHT22;2527;50.892;16.706;2023-06-04T08:21:46;23.50;99.90
5017;DHT22;2527;50.892;16.706;2023-06-04T08:24:12;23.50;99.90
5017;DHT22;2527;50.892;16.706;2023-06-04T08:26:38;23.50;99.90
5017;DHT22;2527;50.892;16.706;2023-06-04T08:29:04;23.40;99.90
5017;DHT22;2527;50.892;16.706;2023-06-04T08:31:30;23.50;99.90
5017;DHT22;2527;50.892;16.706;2023-06-04T08:33:56;23.50;99.90
5017;DHT22;2527;50.892;16.706;2023-06-04T08:36:22;23.50;99.90
5017;DHT22;2527;50.892;16.706;2023-06-04T08:38:48;23.50;99.90
5017;DHT22;2527;50.892;16.706;2023-06-04T08:43:55;23.60;99.90
5017;DHT22;2527;50.892;16.706;2023-06-04T08:46:22;23.60;99.90
5017;DHT22;2527;50.892;16.706;2023-06-04T08:48:48;22.60;99.90
5017;DHT22;2527;50.892;16.706;2023-06-04T08:51:15;23.50;99.90
5017;DHT22;2527;50.892;16.706;2023-06-04T08:53:41;23.50;99.90
5017;DHT22;2527;50.892;16.706;2023-06-04T08:56:08;23.50;99.90
5017;DHT22;2527;50.892;16.706;2023-06-04T08:58:35;23.50;99.90
5017;DHT22;2527;50.892;16.706;2023-06-04T09:01:01;23.50;99.90
5017;DHT22;2527;50.892;16.706;2023-06-04T09:03:31;23.50;99.90
5017;DHT22;2527;50.892;16.706;2023-06-04T09:06:00;23.50;99.90
5017;DHT22;2527;50.892;16.706;2023-06-04T09:08:30;23.40;99.90
5017;DHT22;2527;50.892;16.706;2023-06-04T09:10:56;23.40;99.90
5017;DHT22;2527;50.892;16.706;2023-06-04T09:13:22;23.40;99.90
5017;DHT22;2527;50.892;16.706;2023-06-04T09:16:03;23.40;99.90
5017;DHT22;2527;50.892;16.706;2023-06-04T09:18:29;23.50;99.90
5017;DHT22;2527;50.892;16.706;2023-06-04T09:21:04;23.50;99.90
5017;DHT22;2527;50.892;16.706;2023-06-04T09:23:43;23.50;99.90
5017;DHT22;2527;50.892;16.706;2023-06-04T09:26:09;23.40;99.90
5017;DHT22;2527;50.892;16.706;2023-06-04T09:28:35;23.40;99.90
5017;DHT22;2527;50.892;16.706;2023-06-04T09:31:02;23.40;99.90
5017;DHT22;2527;50.892;16.706;2023-06-04T09:33:28;23.40;99.90
5017;DHT22;2527;50.892;16.706;2023-06-04T09:35:54;23.30;99.90
5017;DHT22;2527;50.892;16.706;2023-06-04T09:38:20;23.30;99.90
5017;DHT22;2527;50.892;16.706;2023-06-04T09:40:51;23.30;99.90
5017;DHT22;2527;50.892;16.706;2023-06-04T09:43:22;24.00;99.90
5017;DHT22;2527;50.892;16.706;2023-06-04T09:45:51;23.20;99.90
5017;DHT22;2527;50.892;16.706;2023-06-04T09:48:21;23.30;99.90
5017;DHT22;2527;50.892;16.706;2023-06-04T09:50:47;23.30;99.90
5017;DHT22;2527;50.892;16.706;2023-06-04T09:53:19;23.30;99.90
5017;DHT22;2527;50.892;16.706;2023-06-04T09:55:57;23.20;99.90
5017;DHT22;2527;50.892;16.706;2023-06-04T09:58:25;23.20;99.90
5017;DHT22;2527;50.892;16.706;2023-06-04T10:00:51;23.20;99.90
5017;DHT22;2527;50.892;16.706;2023-06-04T10:03:18;23.10;99.90
5017;DHT22;2527;50.892;16.706;2023-06-04T10:05:48;23.10;99.90
5017;DHT22;2527;50.892;16.706;2023-06-04T10:08:14;23.10;99.90
5017;DHT22;2527;50.892;16.706;2023-06-04T10:10:42;23.10;99.90
5017;DHT22;2527;50.892;16.706;2023-06-04T10:13:09;23.10;99.90
5017;DHT22;2527;50.892;16.706;2023-06-04T10:15:40;23.20;99.90
5017;DHT22;2527;50.892;16.706;2023-06-04T10:18:06;23.20;99.90
5017;DHT22;2527;50.892;16.706;2023-06-04T10:20:32;23.20;99.90
5017;DHT22;2527;50.892;16.706;2023-06-04T10:22:58;23.20;99.90
5017;DHT22;2527;50.892;16.706;2023-06-04T10:25:24;23.10;99.90
5017;DHT22;2527;50.892;16.706;2023-06-04T10:27:51;23.10;99.90
5017;DHT22;2527;50.892;16.706;2023-06-04T10:30:17;23.00;99.90
5017;DHT22;2527;50.892;16.706;2023-06-04T10:32:43;23.00;99.90
5017;DHT22;2527;50.892;16.706;2023-06-04T10:35:08;22.90;99.90
5017;DHT22;2527;50.892;16.706;2023-06-04T10:37:34;23.00;99.90
5017;DHT22;2527;50.892;16.706;2023-06-04T10:40:00;23.00;99.90
5017;DHT22;2527;50.892;16.706;2023-06-04T10:42:25;22.90;99.90
5017;DHT22;2527;50.892;16.706;2023-06-04T10:44:52;23.00;99.90
5017;DHT22;2527;50.892;16.706;2023-06-04T10:47:22;22.90;99.90
5017;DHT22;2527;50.892;16.706;2023-06-04T10:49:48;22.80;99.90
5017;DHT22;2527;50.892;16.706;2023-06-04T10:52:14;22.80;99.90
5017;DHT22;2527;50.892;16.706;2023-06-04T10:54:41;22.70;99.90
5017;DHT22;2527;50.892;16.706;2023-06-04T10:57:14;22.70;99.90
5017;DHT22;2527;50.892;16.706;2023-06-04T10:59:40;22.70;99.90
5017;DHT22;2527;50.892;16.706;2023-06-04T11:02:07;22.70;99.90
5017;DHT22;2527;50.892;16.706;2023-06-04T11:04:33;22.70;99.90
5017;DHT22;2527;50.892;16.706;2023-06-04T11:07:02;22.70;99.90
5017;DHT22;2527;50.892;16.706;2023-06-04T11:09:37;22.60;99.90
5017;DHT22;2527;50.892;16.706;2023-06-04T11:12:06;22.60;99.90
5017;DHT22;2527;50.892;16.706;2023-06-04T11:14:32;22.50;99.90
5017;DHT22;2527;50.892;16.706;2023-06-04T11:17:08;22.50;99.90
5017;DHT22;2527;50.892;16.706;2023-06-04T11:19:36;22.50;99.90
5017;DHT22;2527;50.892;16.706;2023-06-04T11:22:03;22.40;99.90
5017;DHT22;2527;50.892;16.706;2023-06-04T11:24:29;22.40;99.90
5017;DHT22;2527;50.892;16.706;2023-06-04T11:26:56;22.40;99.90
5017;DHT22;2527;50.892;16.706;2023-06-04T11:29:27;22.30;99.90
5017;DHT22;2527;50.892;16.706;2023-06-04T11:31:54;22.30;99.90
5017;DHT22;2527;50.892;16.706;2023-06-04T11:34:26;22.30;99.90
5017;DHT22;2527;50.892;16.706;2023-06-04T11:36:53;22.30;99.90
5017;DHT22;2527;50.892;16.706;2023-06-04T11:39:19;22.20;99.90
5017;DHT22;2527;50.892;16.706;2023-06-04T11:41:45;22.20;99.90
5017;DHT22;2527;50.892;16.706;2023-06-04T11:44:11;22.20;99.90
5017;DHT22;2527;50.892;16.706;2023-06-04T11:46:41;23.10;99.90
5017;DHT22;2527;50.892;16.706;2023-06-04T11:49:15;22.20;99.90
5017;DHT22;2527;50.892;16.706;2023-06-04T11:51:45;22.20;99.90
5017;DHT22;2527;50.892;16.706;2023-06-04T11:54:10;22.10;99.90
5017;DHT22;2527;50.892;16.706;2023-06-04T11:56:36;22.10;99.90
5017;DHT22;2527;50.892;16.706;2023-06-04T11:59:02;22.10;99.90
5017;DHT22;2527;50.892;16.706;2023-06-04T12:01:27;22.10;99.90
5017;DHT22;2527;50.892;16.706;2023-06-04T12:03:55;22.10;99.90
5017;DHT22;2527;50.892;16.706;2023-06-04T12:06:22;22.10;99.90
5017;DHT22;2527;50.892;16.706;2023-06-04T12:08:51;22.10;99.90
5017;DHT22;2527;50.892;16.706;2023-06-04T12:13:49;22.10;99.90
5017;DHT22;2527;50.892;16.706;2023-06-04T12:16:14;22.10;99.90
5017;DHT22;2527;50.892;16.706;2023-06-04T12:18:41;22.10;99.90
5017;DHT22;2527;50.892;16.706;2023-06-04T12:21:16;22.10;99.90
5017;DHT22;2527;50.892;16.706;2023-06-04T12:23:42;22.00;99.90
5017;DHT22;2527;50.892;16.706;2023-06-04T12:26:08;22.00;99.90
5017;DHT22;2527;50.892;16.706;2023-06-04T12:28:33;21.90;99.90
5017;DHT22;2527;50.892;16.706;2023-06-04T12:31:01;21.90;99.90
5017;DHT22;2527;50.892;16.706;2023-06-04T12:33:26;21.80;99.90
5017;DHT22;2527;50.892;16.706;2023-06-04T12:35:52;21.80;99.90
5017;DHT22;2527;50.892;16.706;2023-06-04T12:38:17;21.80;99.90
5017;DHT22;2527;50.892;16.706;2023-06-04T12:40:43;21.80;99.90
5017;DHT22;2527;50.892;16.706;2023-06-04T12:43:09;21.70;99.90
5017;DHT22;2527;50.892;16.706;2023-06-04T12:45:34;21.70;99.90
5017;DHT22;2527;50.892;16.706;2023-06-04T12:48:00;21.70;99.90
5017;DHT22;2527;50.892;16.706;2023-06-04T12:50:26;21.70;99.90
5017;DHT22;2527;50.892;16.706;2023-06-04T12:52:53;21.70;99.90
5017;DHT22;2527;50.892;16.706;2023-06-04T12:55:19;21.70;99.90
5017;DHT22;2527;50.892;16.706;2023-06-04T12:57:46;21.70;99.90
5017;DHT22;2527;50.892;16.706;2023-06-04T13:00:12;21.60;99.90
5017;DHT22;2527;50.892;16.706;2023-06-04T13:02:40;21.60;99.90
5017;DHT22;2527;50.892;16.706;2023-06-04T13:05:06;21.60;99.90
5017;DHT22;2527;50.892;16.706;2023-06-04T13:07:32;21.60;99.90
5017;DHT22;2527;50.892;16.706;2023-06-04T13:09:58;21.60;99.90
5017;DHT22;2527;50.892;16.706;2023-06-04T13:12:24;21.60;99.90
5017;DHT22;2527;50.892;16.706;2023-06-04T13:14:50;21.60;99.90
5017;DHT22;2527;50.892;16.706;2023-06-04T13:17:15;21.60;99.90
5017;DHT22;2527;50.892;16.706;2023-06-04T13:19:41;21.60;99.90
5017;DHT22;2527;50.892;16.706;2023-06-04T13:22:07;21.60;99.90
5017;DHT22;2527;50.892;16.706;2023-06-04T13:24:34;21.60;99.90
5017;DHT22;2527;50.892;16.706;2023-06-04T13:27:01;21.60;99.90
5017;DHT22;2527;50.892;16.706;2023-06-04T13:29:27;21.60;99.90
5017;DHT22;2527;50.892;16.706;2023-06-04T13:31:55;21.50;99.90
5017;DHT22;2527;50.892;16.706;2023-06-04T13:34:21;21.50;99.90
5017;DHT22;2527;50.892;16.706;2023-06-04T13:36:46;21.50;99.90
5017;DHT22;2527;50.892;16.706;2023-06-04T13:39:12;21.50;99.90
5017;DHT22;2527;50.892;16.706;2023-06-04T13:41:38;21.50;99.90
5017;DHT22;2527;50.892;16.706;2023-06-04T13:44:03;21.50;99.90
5017;DHT22;2527;50.892;16.706;2023-06-04T13:46:29;21.50;99.90
5017;DHT22;2527;50.892;16.706;2023-06-04T13:48:55;21.50;99.90
5017;DHT22;2527;50.892;16.706;2023-06-04T13:51:20;21.50;99.90
5017;DHT22;2527;50.892;16.706;2023-06-04T13:53:46;21.50;99.90
5017;DHT22;2527;50.892;16.706;2023-06-04T13:56:12;21.50;99.90
5017;DHT22;2527;50.892;16.706;2023-06-04T13:58:38;21.50;99.90
5017;DHT22;2527;50.892;16.706;2023-06-04T14:01:04;21.40;99.90
5017;DHT22;2527;50.892;16.706;2023-06-04T14:03:29;21.40;99.90
5017;DHT22;2527;50.892;16.706;2023-06-04T14:05:55;21.40;99.90
5017;DHT22;2527;50.892;16.706;2023-06-04T14:08:21;21.40;99.90
5017;DHT22;2527;50.892;16.706;2023-06-04T14:13:44;21.40;99.90
5017;DHT22;2527;50.892;16.706;2023-06-04T14:16:11;21.40;99.90
5017;DHT22;2527;50.892;16.706;2023-06-04T14:18:38;21.40;99.90
5017;DHT22;2527;50.892;16.706;2023-06-04T14:21:03;21.40;99.90
5017;DHT22;2527;50.892;16.706;2023-06-04T14:23:29;21.40;99.90
5017;DHT22;2527;50.892;16.706;2023-06-04T14:25:55;21.40;99.90
5017;DHT22;2527;50.892;16.706;2023-06-04T14:28:21;21.30;99.90
5017;DHT22;2527;50.892;16.706;2023-06-04T14:30:47;21.40;99.90
5017;DHT22;2527;50.892;16.706;2023-06-04T14:33:13;21.40;99.90
5017;DHT22;2527;50.892;16.706;2023-06-04T14:35:40;21.30;99.90
5017;DHT22;2527;50.892;16.706;2023-06-04T14:38:10;21.30;99.90
5017;DHT22;2527;50.892;16.706;2023-06-04T14:40:36;21.30;99.90
5017;DHT22;2527;50.892;16.706;2023-06-04T14:43:03;21.30;99.90
5017;DHT22;2527;50.892;16.706;2023-06-04T14:45:30;21.30;99.90
5017;DHT22;2527;50.892;16.706;2023-06-04T14:47:55;21.30;99.90
5017;DHT22;2527;50.892;16.706;2023-06-04T14:50:22;21.30;99.90
5017;DHT22;2527;50.892;16.706;2023-06-04T14:52:48;21.30;99.90
5017;DHT22;2527;50.892;16.706;2023-06-04T14:55:14;21.30;99.90
5017;DHT22;2527;50.892;16.706;2023-06-04T14:57:42;21.30;99.90
5017;DHT22;2527;50.892;16.706;2023-06-04T15:00:08;21.30;99.90
5017;DHT22;2527;50.892;16.706;2023-06-04T15:02:34;21.30;99.90
5017;DHT22;2527;50.892;16.706;2023-06-04T15:05:00;21.30;99.90
5017;DHT22;2527;50.892;16.706;2023-06-04T15:07:28;21.30;99.90
5017;DHT22;2527;50.892;16.706;2023-06-04T15:09:53;21.30;99.90
5017;DHT22;2527;50.892;16.706;2023-06-04T15:12:19;21.30;99.90
5017;DHT22;2527;50.892;16.706;2023-06-04T15:14:45;21.30;99.90
5017;DHT22;2527;50.892;16.706;2023-06-04T15:17:11;21.20;99.90
5017;DHT22;2527;50.892;16.706;2023-06-04T15:19:37;21.20;99.90
5017;DHT22;2527;50.892;16.706;2023-06-04T15:22:03;21.20;99.90
5017;DHT22;2527;50.892;16.706;2023-06-04T15:24:30;21.20;99.90
5017;DHT22;2527;50.892;16.706;2023-06-04T15:26:56;21.20;99.90
5017;DHT22;2527;50.892;16.706;2023-06-04T15:29:22;21.20;99.90
5017;DHT22;2527;50.892;16.706;2023-06-04T15:31:48;21.20;99.90
5017;DHT22;2527;50.892;16.706;2023-06-04T15:34:15;21.20;99.90
5017;DHT22;2527;50.892;16.706;2023-06-04T15:36:40;21.20;99.90
5017;DHT22;2527;50.892;16.706;2023-06-04T15:39:07;21.20;99.90
5017;DHT22;2527;50.892;16.706;2023-06-04T15:41:38;21.20;99.90
5017;DHT22;2527;50.892;16.706;2023-06-04T15:44:04;21.20;99.90
5017;DHT22;2527;50.892;16.706;2023-06-04T15:46:31;21.20;99.90
5017;DHT22;2527;50.892;16.706;2023-06-04T15:48:57;21.20;99.90
5017;DHT22;2527;50.892;16.706;2023-06-04T15:51:22;21.20;99.90